Time;durP1;ratioP1;P1;durP2;ratioP2;P2;SDS_P1;SDS_P2;PMS_P1;PMS_P2;Temp;Humidity;BMP_temperature;BMP_pressure;BME280_temperature;BME280_humidity;BME280_pressure;Samples;Min_cycle;Max_cycle;Signal;HPM_P1;HPM_P2
2022/06/16 00:00:00;;;;;;;0.93;0.82;;;;;;;22.23;40.46;101177.81;5209750;28;20037;-80
2022/06/16 00:02:30;;;;;;;0.30;0.30;;;;;;;22.14;41.06;101174.81;5208888;28;20025;-80
2022/06/16 00:05:01;;;;;;;0.80;0.80;;;;;;;22.09;41.39;101170.75;5198691;28;20103;-79
2022/06/16 00:07:31;;;;;;;0.30;0.30;;;;;;;22.11;41.26;101168.81;5223945;28;20148;-79
2022/06/16 00:10:05;;;;;;;0.55;0.55;;;;;;;22.12;40.90;101168.72;5195180;28;20266;-80
2022/06/16 00:12:37;;;;;;;1.38;0.73;;;;;;;22.02;41.71;101164.97;5221976;28;20029;-80
2022/06/16 00:15:10;;;;;;;1.08;0.98;;;;;;;22.01;41.55;101174.81;5201367;28;20041;-80
2022/06/16 00:17:40;;;;;;;;;;;;;;;21.92;41.81;101170.09;5217210;28;20037;-80
2022/06/16 00:20:11;;;;;;;0.45;0.45;;;;;;;21.95;41.71;101180.53;5206838;28;19928;-80
2022/06/16 00:22:42;;;;;;;0.80;0.57;;;;;;;21.92;41.11;101172.75;5229372;28;20029;-80
2022/06/16 00:25:14;;;;;;;0.30;0.30;;;;;;;21.89;41.23;101167.63;5196011;28;20036;-79
2022/06/16 00:27:44;;;;;;;0.22;0.22;;;;;;;21.82;41.46;101177.00;5211492;28;20039;-80
2022/06/16 00:30:15;;;;;;;0.35;0.35;;;;;;;21.83;41.43;101176.91;5207720;28;20484;-80
2022/06/16 00:32:45;;;;;;;0.40;0.40;;;;;;;21.76;41.85;101170.25;5232207;28;20103;-79
2022/06/16 00:35:16;;;;;;;0.65;0.65;;;;;;;21.76;41.52;101169.41;5215454;28;20211;-79
2022/06/16 00:37:46;;;;;;;0.98;0.70;;;;;;;21.69;42.25;101171.63;5210054;28;20457;-80
2022/06/16 00:40:17;;;;;;;0.45;0.45;;;;;;;21.66;41.62;101170.03;5202567;28;20060;-79
2022/06/16 00:42:48;;;;;;;0.32;0.32;;;;;;;21.67;41.68;101177.09;5208269;28;20052;-80
2022/06/16 00:45:43;;;;;;;0.20;0.20;;;;;;;21.63;41.86;101174.72;5198221;28;20448;-80
2022/06/16 00:48:24;;;;;;;0.20;0.20;;;;;;;21.59;42.09;101174.06;5205532;28;20111;-80
2022/06/16 00:51:26;;;;;;;0.47;0.47;;;;;;;21.59;42.15;101166.06;5209806;28;20044;-80
2022/06/16 00:54:02;;;;;;;0.40;0.40;;;;;;;21.53;41.84;101169.09;5180202;28;20025;-80
2022/06/16 00:56:32;;;;;;;0.20;0.20;;;;;;;21.52;41.92;101172.75;5230997;28;20086;-80
2022/06/16 00:59:06;;;;;;;0.50;0.50;;;;;;;21.48;41.95;101173.88;5176813;28;20199;-80
2022/06/16 01:01:39;;;;;;;0.50;0.50;;;;;;;21.46;42.10;101181.13;5203082;28;20041;-80
2022/06/16 01:07:03;;;;;;;0.82;0.82;;;;;;;21.41;42.57;101186.75;5220921;28;20417;-80
2022/06/16 01:09:35;;;;;;;0.63;0.63;;;;;;;21.41;41.84;101197.44;5232673;23;20111;-80
2022/06/16 01:15:30;;;;;;;3.88;1.10;;;;;;;21.39;42.57;101184.22;5174254;28;20108;-80
2022/06/16 01:18:29;;;;;;;0.50;0.50;;;;;;;21.31;42.13;101193.69;5199463;28;20114;-80
2022/06/16 01:21:23;;;;;;;3.97;1.58;;;;;;;21.28;41.89;101192.03;5210445;28;20045;-80
2022/06/16 01:24:10;;;;;;;0.30;0.30;;;;;;;21.25;41.88;101186.94;5172248;28;20029;-79
2022/06/16 01:26:44;;;;;;;0.70;0.68;;;;;;;21.22;42.04;101187.13;5194687;28;20187;-80
2022/06/16 01:30:04;;;;;;;0.35;0.30;;;;;;;21.19;42.01;101192.66;5180518;28;20037;-80
2022/06/16 01:32:58;;;;;;;1.00;0.95;;;;;;;21.17;42.19;101190.09;5187456;28;20133;-80
2022/06/16 01:36:11;;;;;;;0.20;0.20;;;;;;;21.10;42.00;101193.25;5187542;28;20120;-80
2022/06/16 01:38:54;;;;;;;0.52;0.52;;;;;;;21.07;42.05;101195.16;5175188;28;20133;-80
2022/06/16 01:41:32;;;;;;;0.73;0.73;;;;;;;21.05;41.93;101197.06;5198037;28;20544;-80
2022/06/16 01:44:23;;;;;;;0.30;0.30;;;;;;;21.04;41.98;101206.00;5181786;28;20532;-80
2022/06/16 01:47:10;;;;;;;0.95;0.75;;;;;;;21.09;42.63;101204.88;5158009;28;20096;-80
2022/06/16 01:49:51;;;;;;;0.20;0.20;;;;;;;21.04;42.29;101205.19;5183658;28;20048;-80
2022/06/16 01:52:26;;;;;;;0.52;0.52;;;;;;;20.95;42.72;101200.41;5194329;28;20610;-79
2022/06/16 01:55:02;;;;;;;0.40;0.40;;;;;;;20.96;42.34;101205.66;5186331;28;20069;-80
2022/06/16 01:57:41;;;;;;;1.02;0.52;;;;;;;20.92;42.42;101206.81;5183952;28;20148;-80
2022/06/16 02:00:16;;;;;;;0.30;0.30;;;;;;;20.89;42.44;101205.19;5193147;28;20156;-80
2022/06/16 02:03:10;;;;;;;2.22;0.75;;;;;;;20.84;42.65;101209.09;5166469;28;20033;-80
2022/06/16 02:06:01;;;;;;;1.98;1.38;;;;;;;20.84;42.36;101214.44;5198405;28;20620;-80
2022/06/16 02:08:37;;;;;;;5.00;1.95;;;;;;;20.81;42.53;101210.16;5187215;28;20040;-80
2022/06/16 02:11:10;;;;;;;0.50;0.50;;;;;;;20.78;42.74;101225.50;5168722;28;20036;-80
2022/06/16 02:13:52;;;;;;;1.17;0.85;;;;;;;20.74;43.46;101228.34;5184160;28;20493;-80
2022/06/16 02:16:26;;;;;;;0.20;0.20;;;;;;;20.74;42.72;101232.84;5165367;28;20049;-80
2022/06/16 02:18:59;;;;;;;1.48;1.05;;;;;;;20.69;42.61;101232.22;5215773;28;20025;-80
2022/06/16 02:21:39;;;;;;;0.75;0.75;;;;;;;20.64;43.13;101235.16;5169878;28;20098;-80
2022/06/16 02:24:13;;;;;;;0.80;0.80;;;;;;;20.62;43.00;101229.06;5200327;28;20027;-80
2022/06/16 02:26:45;;;;;;;0.52;0.47;;;;;;;20.59;42.70;101232.78;5177997;28;20036;-80
2022/06/16 02:29:34;;;;;;;0.70;0.70;;;;;;;20.56;43.51;101230.31;5179143;28;20112;-80
2022/06/16 02:32:37;;;;;;;0.50;0.50;;;;;;;20.53;42.79;101229.66;5168452;28;20059;-80
2022/06/16 02:35:39;;;;;;;0.30;0.30;;;;;;;20.53;42.68;101229.66;5178162;28;20034;-79
2022/06/16 02:38:46;;;;;;;1.20;0.77;;;;;;;20.49;42.85;101230.75;5181656;28;20601;-79
2022/06/16 02:41:38;;;;;;;0.50;0.50;;;;;;;20.47;42.89;101232.66;5168630;28;20065;-80
2022/06/16 02:44:36;;;;;;;1.25;0.68;;;;;;;20.44;43.03;101223.94;5173699;28;20065;-79
2022/06/16 02:47:45;;;;;;;0.50;0.50;;;;;;;20.40;42.85;101227.72;5177849;28;20025;-79
2022/06/16 02:50:31;;;;;;;0.50;0.50;;;;;;;20.38;43.06;101224.28;5181381;28;20041;-80
2022/06/16 02:53:28;;;;;;;0.47;0.47;;;;;;;20.36;43.05;101231.53;5201749;28;20089;-80
2022/06/16 02:56:08;;;;;;;0.43;0.43;;;;;;;20.33;43.07;101237.03;5187852;28;20029;-80
2022/06/16 02:58:41;;;;;;;3.03;1.52;;;;;;;20.32;43.10;101235.31;5195688;28;20029;-80
2022/06/16 03:01:12;;;;;;;0.22;0.22;;;;;;;20.28;43.26;101228.47;5185112;28;20052;-80
2022/06/16 03:04:00;;;;;;;0.85;0.85;;;;;;;20.23;43.47;101230.53;5209289;28;20041;-80
2022/06/16 03:06:31;;;;;;;0.45;0.45;;;;;;;20.16;43.49;101234.50;5138895;28;20052;-79
2022/06/16 03:09:04;;;;;;;0.40;0.40;;;;;;;20.10;43.45;101231.28;5190767;28;20029;-80
2022/06/16 03:11:36;;;;;;;0.73;0.73;;;;;;;20.06;43.58;101242.19;5167409;28;20083;-79
2022/06/16 03:14:07;;;;;;;0.45;0.45;;;;;;;20.05;43.85;101238.66;5198986;28;20051;-80
2022/06/16 03:16:38;;;;;;;0.60;0.60;;;;;;;20.03;43.61;101245.03;5189225;28;20045;-79
2022/06/16 03:19:09;;;;;;;0.73;0.40;;;;;;;19.96;43.45;101249.84;5182224;28;20037;-80
2022/06/16 03:21:39;;;;;;;0.40;0.40;;;;;;;19.93;43.67;101244.72;5180926;28;20025;-79
2022/06/16 03:24:10;;;;;;;0.55;0.55;;;;;;;19.89;43.30;101248.50;5185802;28;20025;-80
2022/06/16 03:26:40;;;;;;;0.35;0.35;;;;;;;19.86;43.41;101251.34;5193715;28;20025;-79
2022/06/16 03:29:11;;;;;;;0.43;0.43;;;;;;;19.84;43.53;101261.19;5177370;28;20063;-80
2022/06/16 03:31:41;;;;;;;0.52;0.40;;;;;;;19.79;43.51;101272.94;5198265;28;20052;-80
2022/06/16 03:34:12;;;;;;;0.32;0.32;;;;;;;19.76;43.21;101282.91;5179175;28;20453;-80
2022/06/16 03:36:43;;;;;;;0.50;0.50;;;;;;;19.71;43.49;101272.53;5204685;28;20037;-80
2022/06/16 03:39:13;;;;;;;0.40;0.40;;;;;;;19.65;43.50;101273.75;5196009;28;20037;-79
2022/06/16 03:41:44;;;;;;;0.35;0.35;;;;;;;19.62;43.53;101279.25;5210662;28;20029;-79
2022/06/16 03:44:15;;;;;;;0.60;0.60;;;;;;;19.59;43.59;101281.22;5187081;28;20108;-80
2022/06/16 03:46:46;;;;;;;0.43;0.43;;;;;;;19.53;43.52;101289.56;5178838;28;20658;-80
2022/06/16 03:49:16;;;;;;;0.50;0.45;;;;;;;19.52;44.27;101293.16;5225266;28;20025;-80
2022/06/16 03:51:47;;;;;;;0.73;0.60;;;;;;;19.46;43.55;101300.53;5193821;28;20025;-80
2022/06/16 03:54:17;;;;;;;0.45;0.45;;;;;;;19.41;43.67;101299.94;5197753;28;20040;-79
2022/06/16 03:56:48;;;;;;;0.30;0.30;;;;;;;19.40;43.87;101303.53;5201500;28;20045;-79
2022/06/16 03:59:21;;;;;;;1.75;1.00;;;;;;;19.38;43.55;101302.75;5197028;28;20013;-80
2022/06/16 04:01:52;;;;;;;0.80;0.80;;;;;;;19.33;43.18;101299.50;5212573;28;20036;-80
2022/06/16 04:04:22;;;;;;;0.73;0.73;;;;;;;19.30;43.37;101295.22;5165617;28;20032;-80
2022/06/16 04:06:53;;;;;;;0.30;0.30;;;;;;;19.26;43.60;101298.13;5201725;28;20032;-80
2022/06/16 04:09:23;;;;;;;2.33;0.93;;;;;;;19.23;43.59;101298.28;5198067;28;20025;-79
2022/06/16 04:11:54;;;;;;;0.40;0.40;;;;;;;19.18;43.75;101309.16;5215036;28;20116;-80
2022/06/16 04:14:24;;;;;;;0.93;0.73;;;;;;;19.15;43.77;101304.88;5176524;28;20124;-80
2022/06/16 04:16:57;;;;;;;0.32;0.32;;;;;;;19.15;43.56;101323.50;5187009;28;20485;-80
2022/06/16 04:19:27;;;;;;;0.60;0.60;;;;;;;19.11;44.17;101326.41;5201164;28;20793;-80
2022/06/16 04:21:58;;;;;;;0.45;0.45;;;;;;;19.09;43.50;101329.16;5204291;28;20021;-79
2022/06/16 04:24:29;;;;;;;0.88;0.88;;;;;;;19.07;43.63;101331.03;5173603;28;20528;-80
2022/06/16 04:26:59;;;;;;;0.38;0.38;;;;;;;19.04;43.44;101331.22;5174921;28;20066;-80
2022/06/16 04:29:30;;;;;;;0.32;0.32;;;;;;;19.03;43.59;101338.31;5197852;28;20056;-80
2022/06/16 04:32:01;;;;;;;1.05;0.63;;;;;;;19.03;43.68;101340.13;5194671;28;20120;-79
2022/06/16 04:34:31;;;;;;;9.13;0.52;;;;;;;18.99;43.47;101334.09;5186500;28;20123;-79
2022/06/16 04:37:03;;;;;;;1.38;0.50;;;;;;;18.98;43.68;101336.81;5187399;28;20112;-79
2022/06/16 04:39:33;;;;;;;0.30;0.30;;;;;;;18.93;43.67;101333.56;5163010;28;20060;-81
2022/06/16 04:42:07;;;;;;;0.38;0.38;;;;;;;18.92;43.92;101337.13;5204280;28;20502;-80
2022/06/16 04:44:40;;;;;;;0.47;0.47;;;;;;;18.91;43.82;101338.94;5199694;28;20037;-80
2022/06/16 04:47:11;;;;;;;0.57;0.57;;;;;;;18.88;43.52;101342.59;5184868;28;20029;-80
2022/06/16 04:49:43;;;;;;;0.77;0.60;;;;;;;18.88;43.83;101333.78;5182674;28;20037;-80
2022/06/16 04:52:17;;;;;;;0.68;0.65;;;;;;;18.87;43.79;101335.59;5185810;28;20049;-80
2022/06/16 04:54:49;;;;;;;5.43;0.75;;;;;;;18.83;43.74;101343.78;5130244;28;20060;-80
2022/06/16 04:57:19;;;;;;;0.25;0.25;;;;;;;18.81;43.73;101346.50;5157274;28;20027;-80
2022/06/16 04:59:50;;;;;;;2.83;1.38;;;;;;;18.82;43.91;101353.56;5191774;28;20048;-82
2022/06/16 05:02:20;;;;;;;1.10;0.50;;;;;;;18.82;43.83;101347.38;5209215;28;20030;-78
2022/06/16 05:04:51;;;;;;;1.00;1.00;;;;;;;18.80;44.12;101358.09;5179032;28;20066;-80
2022/06/16 05:07:21;;;;;;;7.47;1.80;;;;;;;18.82;43.85;101368.66;5171416;28;20113;-79
2022/06/16 05:09:52;;;;;;;0.95;0.80;;;;;;;18.80;44.20;101371.38;5164843;28;20132;-80
2022/06/16 05:12:22;;;;;;;1.05;1.00;;;;;;;18.69;44.56;101373.75;5150960;28;20037;-78
2022/06/16 05:14:53;;;;;;;0.60;0.60;;;;;;;18.77;44.08;101376.00;5165108;28;20069;-78
2022/06/16 05:17:23;;;;;;;0.30;0.30;;;;;;;18.75;44.23;101378.72;5172296;28;20034;-79
2022/06/16 05:19:57;;;;;;;0.40;0.40;;;;;;;18.74;44.41;101377.00;5162349;28;20076;-79
2022/06/16 05:22:27;;;;;;;0.35;0.35;;;;;;;18.74;44.28;101377.00;5162960;28;20054;-78
2022/06/16 05:24:58;;;;;;;2.92;0.82;;;;;;;18.75;44.22;101384.06;5160691;28;20064;-77
2022/06/16 05:27:28;;;;;;;0.40;0.40;;;;;;;18.74;44.61;101400.94;5155267;28;20021;-79
2022/06/16 05:29:59;;;;;;;13.18;1.55;;;;;;;18.76;44.55;101401.72;5161145;28;20045;-79
2022/06/16 05:32:29;;;;;;;4.22;0.60;;;;;;;18.72;44.64;101408.13;5152393;28;20030;-78
2022/06/16 05:35:00;;;;;;;0.30;0.30;;;;;;;18.74;44.53;101406.25;5183898;28;20046;-78
2022/06/16 05:37:31;;;;;;;0.38;0.38;;;;;;;18.74;44.22;101419.53;5171317;28;20446;-78
2022/06/16 05:40:03;;;;;;;0.70;0.70;;;;;;;18.74;44.60;101414.22;5170840;28;20105;-79
2022/06/16 05:42:33;;;;;;;0.43;0.38;;;;;;;18.76;45.03;101411.50;5170620;28;20022;-79
2022/06/16 05:45:05;;;;;;;0.22;0.22;;;;;;;18.75;44.53;101415.94;5168414;28;20521;-78
2022/06/16 05:47:37;;;;;;;1.10;1.10;;;;;;;18.71;44.96;101419.72;5156690;28;20757;-79
2022/06/16 05:50:08;;;;;;;0.50;0.50;;;;;;;18.76;44.51;101417.69;5185490;28;20159;-79
2022/06/16 05:52:39;;;;;;;0.20;0.20;;;;;;;18.75;44.75;101415.94;5185069;28;20028;-80
2022/06/16 05:55:12;;;;;;;1.45;1.13;;;;;;;18.81;44.59;101418.28;5173000;28;20045;-79
2022/06/16 05:57:43;;;;;;;0.50;0.50;;;;;;;18.89;44.83;101417.91;5181852;28;20025;-81
2022/06/16 06:00:14;;;;;;;0.40;0.40;;;;;;;18.82;44.68;101421.81;5160488;28;20042;-80
2022/06/16 06:02:45;;;;;;;0.35;0.35;;;;;;;18.83;44.95;101418.22;5186707;28;20038;-81
2022/06/16 06:05:15;;;;;;;4.55;0.75;;;;;;;18.87;44.80;101420.66;5160109;28;20042;-81
2022/06/16 06:16:37;;;;;;;0.40;0.40;;;;;;;18.88;45.13;101438.31;5191652;28;20044;-82
2022/06/16 06:19:23;;;;;;;0.68;0.68;;;;;;;18.87;44.93;101431.28;5178285;28;20136;-82
2022/06/16 06:22:46;;;;;;;0.30;0.30;;;;;;;18.94;44.62;101431.84;5167752;28;20018;-82
2022/06/16 06:24:58;;;;;;;0.85;0.80;;;;;;;18.92;45.47;101432.84;5171906;28;20442;-81
2022/06/16 06:27:41;;;;;;;0.85;0.82;;;;;;;18.93;44.87;101445.25;5176641;28;20033;-80
2022/06/16 06:30:21;;;;;;;0.30;0.30;;;;;;;18.90;45.00;101450.66;5121526;28;20069;-81
2022/06/16 06:32:52;;;;;;;0.40;0.40;;;;;;;18.95;44.85;101456.66;5127252;28;20666;-80
2022/06/16 06:35:23;;;;;;;5.28;1.30;;;;;;;18.97;44.62;101463.63;5146710;28;20592;-80
2022/06/16 06:37:53;;;;;;;0.47;0.47;;;;;;;19.00;44.60;101462.59;5166800;28;20449;-80
2022/06/16 06:40:28;;;;;;;0.30;0.30;;;;;;;19.00;44.65;101462.59;5160913;28;20036;-81
2022/06/16 06:42:59;;;;;;;0.40;0.40;;;;;;;18.93;44.65;101467.34;5163052;28;20654;-80
2022/06/16 06:45:37;;;;;;;0.60;0.60;;;;;;;18.93;44.58;101469.16;5163112;28;20525;-80
2022/06/16 06:48:08;;;;;;;1.17;0.73;;;;;;;18.95;44.50;101465.50;5175490;28;20071;-80
2022/06/16 06:50:40;;;;;;;1.55;0.93;;;;;;;18.96;44.69;101471.69;5186526;28;20042;-78
2022/06/16 06:53:11;;;;;;;0.30;0.30;;;;;;;19.03;44.52;101465.13;5181570;28;20061;-79
2022/06/16 06:55:45;;;;;;;0.20;0.20;;;;;;;19.05;44.44;101470.34;5176754;28;20057;-79
2022/06/16 06:58:21;;;;;;;0.40;0.40;;;;;;;19.06;44.50;101472.91;5177162;28;20041;-81
2022/06/16 07:00:53;;;;;;;0.20;0.20;;;;;;;18.98;44.72;101473.31;5190923;28;20391;-83
2022/06/16 07:03:24;;;;;;;0.30;0.30;;;;;;;19.06;44.76;101483.56;5194737;28;20531;-81
2022/06/16 07:05:56;;;;;;;0.32;0.32;;;;;;;19.11;44.53;101481.53;5165003;28;20092;-81
2022/06/16 07:08:26;;;;;;;0.85;0.82;;;;;;;19.11;44.48;101480.66;5175441;28;20089;-81
2022/06/16 07:10:57;;;;;;;2.92;1.85;;;;;;;19.06;45.30;101493.34;5178506;28;20034;-82
2022/06/16 07:13:28;;;;;;;1.65;0.77;;;;;;;19.14;44.66;101499.97;5158126;28;20132;-81
2022/06/16 07:15:58;;;;;;;0.43;0.43;;;;;;;19.09;45.06;101498.53;5190499;28;20042;-82
2022/06/16 07:18:29;;;;;;;0.52;0.52;;;;;;;19.16;44.62;101505.25;5161798;28;20034;-81
2022/06/16 07:21:00;;;;;;;0.95;0.95;;;;;;;19.16;44.92;101495.44;5172530;28;20112;-81
2022/06/16 07:23:30;;;;;;;0.95;0.95;;;;;;;19.17;44.43;101502.50;5190586;28;20111;-82
2022/06/16 07:26:01;;;;;;;0.38;0.38;;;;;;;19.19;44.46;101505.94;5140498;28;20060;-81
2022/06/16 07:28:32;;;;;;;0.30;0.30;;;;;;;19.27;44.68;101508.19;5156969;28;20022;-81
2022/06/16 07:31:04;;;;;;;0.50;0.50;;;;;;;19.34;44.47;101514.91;5187337;28;20078;-81
2022/06/16 07:33:38;;;;;;;0.73;0.73;;;;;;;19.26;44.53;101518.94;5195364;28;20017;-81
2022/06/16 07:36:10;;;;;;;0.68;0.63;;;;;;;19.18;44.79;101522.84;5182565;28;20512;-80
2022/06/16 07:38:40;;;;;;;0.50;0.50;;;;;;;19.23;44.84;101521.72;5162047;28;20645;-81
2022/06/16 07:44:11;;;;;;;0.70;0.70;;;;;;;19.24;45.52;101524.34;5175601;28;20513;-81
2022/06/16 07:46:43;;;;;;;0.20;0.20;;;;;;;19.31;45.24;101528.41;5169569;28;20039;-81
2022/06/16 07:49:21;;;;;;;0.60;0.60;;;;;;;19.30;45.25;101531.13;5194959;28;20029;-81
2022/06/16 07:51:53;;;;;;;0.88;0.88;;;;;;;19.28;44.93;101533.03;5174616;28;20037;-81
2022/06/16 07:54:25;;;;;;;0.55;0.55;;;;;;;19.34;44.64;101530.88;5166165;28;20057;-81
2022/06/16 07:56:56;;;;;;;0.77;0.70;;;;;;;19.33;44.92;101542.50;5178756;28;20021;-80
2022/06/16 07:59:27;;;;;;;0.40;0.40;;;;;;;19.41;44.76;101535.91;5190156;28;20133;-80
2022/06/16 08:01:57;;;;;;;0.63;0.63;;;;;;;19.34;45.12;101538.88;5156929;28;20036;-80
2022/06/16 08:04:28;;;;;;;0.30;0.30;;;;;;;19.30;45.20;101541.75;5166837;28;20122;-80
2022/06/16 08:07:04;;;;;;;1.52;1.42;;;;;;;19.32;45.01;101537.22;5165711;28;20037;-80
2022/06/16 08:09:35;;;;;;;5.78;2.53;;;;;;;19.36;45.11;101541.47;5180214;28;20052;-80
2022/06/16 08:12:10;;;;;;;0.43;0.43;;;;;;;19.40;45.26;101550.16;5185316;28;20038;-80
2022/06/16 08:14:44;;;;;;;0.30;0.30;;;;;;;19.43;45.28;101545.53;5198707;28;20033;-81
2022/06/16 08:17:26;;;;;;;0.30;0.30;;;;;;;19.44;45.30;101551.69;5153560;28;20487;-82
2022/06/16 08:19:57;;;;;;;1.40;0.70;;;;;;;19.48;45.03;101547.97;5176844;28;20042;-81
2022/06/16 08:22:28;;;;;;;1.55;1.02;;;;;;;19.58;44.55;101558.97;5154470;28;20511;-80
2022/06/16 08:24:58;;;;;;;0.60;0.60;;;;;;;19.47;43.78;101559.53;5193958;28;20029;-81
2022/06/16 08:27:34;;;;;;;0.47;0.47;;;;;;;19.54;43.91;101555.63;5204132;28;20048;-81
2022/06/16 08:30:09;;;;;;;0.40;0.40;;;;;;;19.56;43.99;101560.84;5166805;28;20049;-81
2022/06/16 08:32:40;;;;;;;0.30;0.30;;;;;;;19.60;43.51;101565.09;5185569;28;20030;-80
2022/06/16 08:35:11;;;;;;;0.40;0.40;;;;;;;19.54;43.23;101573.41;5166135;28;20485;-81
2022/06/16 08:37:42;;;;;;;0.55;0.55;;;;;;;19.62;43.31;101568.53;5164516;28;20569;-81
2022/06/16 08:40:14;;;;;;;2.38;1.17;;;;;;;19.65;43.18;101561.25;5175204;28;20126;-81
2022/06/16 08:43:04;;;;;;;0.40;0.40;;;;;;;19.69;42.41;101556.63;5169704;28;20033;-83
2022/06/16 08:45:39;;;;;;;0.73;0.43;;;;;;;19.77;42.24;101559.75;5197121;28;20057;-80
2022/06/16 08:48:31;;;;;;;1.23;1.13;;;;;;;19.66;42.68;101563.00;5173588;28;20398;-81
2022/06/16 08:51:14;;;;;;;0.57;0.50;;;;;;;19.73;42.11;101563.50;5186121;28;20704;-81
2022/06/16 08:54:13;;;;;;;0.50;0.50;;;;;;;19.73;41.55;101562.66;5173385;28;20730;-81
2022/06/16 08:57:10;;;;;;;0.30;0.30;;;;;;;19.71;42.28;101560.06;5164353;28;20049;-81
2022/06/16 08:59:43;;;;;;;3.22;0.38;;;;;;;19.77;41.61;101569.53;5177229;28;20042;-81
2022/06/16 09:02:26;;;;;;;0.20;0.20;;;;;;;19.77;41.61;101575.72;5180713;28;20032;-81
2022/06/16 09:05:10;;;;;;;0.40;0.40;;;;;;;19.87;41.97;101575.28;5182386;28;20046;-81
2022/06/16 09:07:53;;;;;;;0.50;0.50;;;;;;;19.83;40.73;101579.88;5194589;28;20022;-80
2022/06/16 09:10:33;;;;;;;0.77;0.70;;;;;;;19.84;39.98;101581.56;5162434;28;20275;-80
2022/06/16 09:13:33;;;;;;;0.30;0.30;;;;;;;19.87;40.60;101585.94;5177119;28;20048;-81
2022/06/16 09:16:26;;;;;;;0.30;0.30;;;;;;;19.93;40.58;101589.13;5144049;28;20125;-81
2022/06/16 09:19:32;;;;;;;0.38;0.38;;;;;;;20.00;40.55;101597.66;5189507;28;20033;-81
2022/06/16 09:22:11;;;;;;;0.50;0.50;;;;;;;20.08;40.98;101600.75;5091763;29;20054;-83
2022/06/16 09:24:59;;;;;;;0.20;0.20;;;;;;;20.02;41.15;101595.78;5153195;28;20093;-81
2022/06/16 09:27:41;;;;;;;0.30;0.30;;;;;;;20.11;41.14;101605.06;5161568;28;20339;-81
2022/06/16 09:30:22;;;;;;;0.82;0.60;;;;;;;20.16;41.32;101602.16;5141232;28;20029;-79
2022/06/16 09:33:00;;;;;;;0.45;0.45;;;;;;;20.22;41.03;101607.16;5162278;28;20124;-80
2022/06/16 09:35:45;;;;;;;0.50;0.50;;;;;;;20.28;41.38;101607.69;5168435;28;20100;-80
2022/06/16 09:38:30;;;;;;;0.75;0.75;;;;;;;20.35;40.93;101618.88;5170164;28;20038;-81
2022/06/16 09:41:04;;;;;;;1.55;0.70;;;;;;;20.42;41.01;101625.59;5161314;28;20103;-82
2022/06/16 09:43:46;;;;;;;0.20;0.20;;;;;;;20.41;40.53;101617.69;5156238;28;20666;-79
2022/06/16 09:46:23;;;;;;;0.30;0.30;;;;;;;20.35;40.53;101629.53;5174943;28;20085;-80
2022/06/16 09:49:06;;;;;;;1.08;0.40;;;;;;;20.40;40.19;101635.47;5183604;28;20030;-79
2022/06/16 09:51:50;;;;;;;0.57;0.38;;;;;;;20.39;40.00;101632.91;5171905;28;20229;-80
2022/06/16 09:54:27;;;;;;;0.95;0.68;;;;;;;20.41;40.50;101628.34;5173646;28;20117;-79
2022/06/16 09:57:01;;;;;;;0.30;0.30;;;;;;;20.59;40.23;101651.31;5163503;28;20038;-78
2022/06/16 09:59:33;;;;;;;1.05;0.35;;;;;;;20.52;40.40;101651.75;5173364;28;20049;-80
2022/06/16 10:02:11;;;;;;;0.20;0.20;;;;;;;20.51;40.36;101652.69;5185632;28;20033;-79
2022/06/16 10:04:42;;;;;;;0.30;0.30;;;;;;;20.57;40.73;101650.56;5162897;28;20558;-79
2022/06/16 10:07:29;;;;;;;0.60;0.60;;;;;;;20.64;39.37;101651.06;5156130;28;20030;-79
2022/06/16 10:10:09;;;;;;;0.40;0.40;;;;;;;20.68;39.98;101649.97;5179854;28;20558;-78
2022/06/16 10:12:51;;;;;;;0.40;0.40;;;;;;;20.78;39.20;101660.16;5178131;28;20040;-78
2022/06/16 10:15:53;;;;;;;0.95;0.95;;;;;;;20.71;39.42;101668.44;5196342;28;20572;-79
2022/06/16 10:18:24;;;;;;;0.43;0.43;;;;;;;20.73;39.41;101649.75;5166760;28;20037;-79
2022/06/16 10:20:55;;;;;;;0.20;0.20;;;;;;;20.89;40.08;101657.75;5167531;28;20042;-79
2022/06/16 10:23:31;;;;;;;0.20;0.20;;;;;;;20.99;38.64;101656.28;5161693;28;20081;-80
2022/06/16 10:26:04;;;;;;;7.80;1.77;;;;;;;20.95;38.68;101660.06;5174954;28;20037;-79
2022/06/16 10:28:50;;;;;;;0.47;0.47;;;;;;;20.97;38.92;101662.66;5158741;28;20703;-79
2022/06/16 10:31:46;;;;;;;0.77;0.77;;;;;;;21.03;39.29;101663.16;5203604;28;20033;-82
2022/06/16 10:34:39;;;;;;;3.60;3.03;;;;;;;21.23;39.46;101659.38;5202671;28;20061;-79
2022/06/16 10:37:16;;;;;;;12.95;11.65;;;;;;;21.18;38.83;101660.59;5193713;28;20242;-80
2022/06/16 10:39:54;;;;;;;13.88;9.77;;;;;;;21.35;39.25;101652.47;5167938;28;20081;-81
2022/06/16 10:42:46;;;;;;;3.25;3.05;;;;;;;21.41;39.29;101648.56;5181786;28;20083;-79
2022/06/16 10:45:26;;;;;;;20.52;14.75;;;;;;;21.41;38.83;101647.72;5163361;28;20099;-80
2022/06/16 10:48:01;;;;;;;1.25;1.17;;;;;;;21.49;38.03;101645.47;5181306;28;20033;-80
2022/06/16 10:50:37;;;;;;;4.15;3.78;;;;;;;21.54;38.95;101638.03;5153241;28;20068;-81
2022/06/16 10:53:24;;;;;;;1.52;1.42;;;;;;;21.64;38.36;101641.06;5190455;28;20711;-80
2022/06/16 10:56:01;;;;;;;0.70;0.70;;;;;;;21.70;38.01;101636.19;5188978;28;20037;-82
2022/06/16 10:58:44;;;;;;;0.50;0.50;;;;;;;21.78;38.46;101637.53;5208418;28;20025;-81
2022/06/16 11:01:23;;;;;;;;;;;;;;;21.79;37.64;101639.25;5188472;28;20041;-80
2022/06/16 11:04:09;;;;;;;0.55;0.55;;;;;;;21.85;38.69;101641.59;5193075;28;19913;-81
2022/06/16 11:06:47;;;;;;;0.30;0.30;;;;;;;21.88;37.86;101638.72;5191958;28;20152;-80
2022/06/16 11:09:31;;;;;;;0.55;0.55;;;;;;;22.02;37.79;101641.41;5177233;28;20035;-80
2022/06/16 11:12:06;;;;;;;0.30;0.30;;;;;;;22.11;38.12;101640.00;5183475;28;20037;-79
2022/06/16 11:14:47;;;;;;;4.47;1.48;;;;;;;22.11;38.07;101641.78;5182308;28;20498;-80
2022/06/16 11:17:36;;;;;;;0.15;0.15;;;;;;;22.09;38.06;101649.91;5174014;28;20034;-80
2022/06/16 11:20:27;;;;;;;0.38;0.38;;;;;;;22.13;38.39;101645.25;5186081;28;20617;-80
2022/06/16 11:22:58;;;;;;;0.50;0.50;;;;;;;22.23;38.35;101650.91;5199814;28;20042;-80
2022/06/16 11:25:36;;;;;;;0.30;0.30;;;;;;;22.28;38.45;101649.63;5178764;28;20523;-79
2022/06/16 11:28:07;;;;;;;1.48;1.05;;;;;;;22.40;37.91;101649.88;5196711;28;20542;-80
2022/06/16 11:30:43;;;;;;;0.40;0.40;;;;;;;22.45;37.81;101647.75;5197766;28;20196;-82
2022/06/16 11:34:06;;;;;;;0.20;0.20;;;;;;;22.51;37.52;101635.81;5191759;28;20026;-82
2022/06/16 11:36:32;;;;;;;0.30;0.30;;;;;;;22.56;37.86;101639.06;5193447;28;20037;-82
2022/06/16 11:39:15;;;;;;;0.30;0.30;;;;;;;22.67;37.17;101628.53;5184629;28;20753;-81
2022/06/16 11:41:50;;;;;;;0.30;0.30;;;;;;;22.68;37.59;101627.56;5185147;28;20089;-80
2022/06/16 11:44:33;;;;;;;1.23;0.40;;;;;;;22.76;38.02;101630.63;5199701;28;20033;-81
2022/06/16 11:47:23;;;;;;;0.32;0.32;;;;;;;22.82;37.65;101624.03;5166034;28;20018;-82
2022/06/16 11:50:15;;;;;;;0.40;0.40;;;;;;;22.92;37.26;101630.50;5174201;28;20045;-80
2022/06/16 11:53:15;;;;;;;1.27;1.15;;;;;;;22.96;37.95;101628.47;5199539;28;20049;-81
2022/06/16 11:56:16;;;;;;;0.52;0.52;;;;;;;23.05;37.90;101635.91;5155550;28;20655;-80
2022/06/16 11:59:32;;;;;;;0.52;0.50;;;;;;;23.22;37.11;101632.13;5165242;28;20149;-81
2022/06/16 12:02:09;;;;;;;0.30;0.30;;;;;;;23.24;36.94;101630.22;5160936;28;20037;-81
2022/06/16 12:04:41;;;;;;;0.20;0.20;;;;;;;23.33;37.41;101627.91;5168357;28;20587;-82
2022/06/16 12:07:30;;;;;;;0.60;0.60;;;;;;;23.41;36.60;101633.59;5152672;28;20270;-82
2022/06/16 12:10:16;;;;;;;0.40;0.40;;;;;;;23.48;36.48;101632.22;5170202;28;20042;-81
2022/06/16 12:12:57;;;;;;;0.35;0.35;;;;;;;23.66;34.79;101631.94;5176939;28;20422;-81
2022/06/16 12:15:38;;;;;;;3.03;0.85;;;;;;;23.69;35.97;101631.69;5181324;28;20062;-80
2022/06/16 12:18:35;;;;;;;0.90;0.60;;;;;;;23.74;36.03;101622.38;5176304;28;20033;-84
2022/06/16 12:21:17;;;;;;;0.35;0.35;;;;;;;23.88;36.30;101628.63;5189369;28;20046;-79
2022/06/16 12:24:09;;;;;;;0.40;0.40;;;;;;;23.98;35.88;101620.84;5185607;28;20623;-80
2022/06/16 12:27:02;;;;;;;0.43;0.43;;;;;;;24.02;34.98;101619.63;5190630;28;20037;-79
2022/06/16 12:29:53;;;;;;;0.30;0.30;;;;;;;24.16;34.99;101616.88;5182022;28;20037;-81
2022/06/16 12:32:42;;;;;;;4.82;1.38;;;;;;;24.20;33.27;101629.06;5167621;28;20041;-81